createdAt,value
2017-08-29T00:01:17.033Z,19.10
2017-08-29T00:06:19.408Z,18.90
2017-08-29T00:11:21.096Z,19.10
2017-08-29T00:16:23.156Z,19.00
2017-08-29T00:21:24.825Z,19.10
2017-08-29T00:26:26.624Z,19.20
2017-08-29T00:31:28.381Z,19.20
2017-08-29T00:36:30.072Z,19.10
2017-08-29T00:41:32.170Z,18.80
2017-08-29T00:46:33.905Z,18.90
2017-08-29T00:51:35.705Z,18.70
2017-08-29T00:56:37.358Z,18.60
2017-08-29T01:01:38.974Z,18.70
2017-08-29T01:06:40.725Z,18.50
2017-08-29T01:11:42.396Z,18.50
2017-08-29T01:16:44.606Z,18.40
2017-08-29T01:21:46.337Z,18.50
2017-08-29T01:26:48.027Z,18.40
2017-08-29T01:31:49.802Z,18.40
2017-08-29T01:36:51.447Z,18.30
2017-08-29T01:41:53.248Z,18.30
2017-08-29T01:46:54.899Z,18.20
2017-08-29T01:51:56.594Z,18.00
2017-08-29T01:56:58.985Z,18.00
2017-08-29T02:02:00.629Z,18.00
2017-08-29T02:07:02.430Z,18.00
2017-08-29T02:12:04.080Z,18.00
2017-08-29T02:17:05.754Z,18.00
2017-08-29T02:22:07.425Z,18.00
2017-08-29T02:27:09.811Z,17.90
2017-08-29T02:32:11.511Z,17.90
2017-08-29T02:37:28.051Z,17.90
2017-08-29T02:42:44.397Z,18.10
2017-08-29T02:48:01.254Z,18.00
2017-08-29T02:53:02.950Z,17.90
2017-08-29T02:58:04.726Z,17.70
2017-08-29T03:03:21.080Z,17.70
2017-08-29T03:08:37.610Z,17.50
2017-08-29T03:13:54.329Z,17.50
2017-08-29T03:18:55.934Z,17.70
2017-08-29T03:23:57.615Z,17.60
2017-08-29T03:28:59.284Z,17.40
2017-08-29T03:34:00.922Z,17.50
2017-08-29T03:39:02.652Z,17.50
2017-08-29T03:44:05.490Z,17.40
2017-08-29T03:49:07.200Z,17.40
2017-08-29T03:54:08.875Z,17.20
2017-08-29T03:59:10.671Z,16.90
2017-08-29T04:04:12.343Z,17.00
2017-08-29T04:09:16.632Z,16.80
2017-08-29T04:14:20.816Z,16.90
2017-08-29T04:19:23.138Z,16.40
2017-08-29T04:24:25.902Z,16.40
2017-08-29T04:29:27.567Z,16.00
2017-08-29T04:34:30.304Z,16.00
2017-08-29T04:39:32.729Z,15.80
2017-08-29T04:44:34.372Z,15.90
2017-08-29T04:49:36.385Z,15.90
2017-08-29T04:54:38.902Z,15.80
2017-08-29T04:59:41.236Z,15.70
2017-08-29T05:04:43.062Z,15.70
2017-08-29T05:09:44.837Z,15.80
2017-08-29T05:14:47.166Z,15.80
2017-08-29T05:19:48.900Z,15.90
2017-08-29T05:24:51.290Z,16.40
2017-08-29T05:29:52.961Z,16.60
2017-08-29T05:34:54.741Z,16.80
2017-08-29T05:39:56.409Z,16.90
2017-08-29T05:45:00.005Z,17.20
2017-08-29T05:50:02.903Z,17.30
2017-08-29T05:55:05.149Z,17.70
2017-08-29T06:00:06.766Z,18.00
2017-08-29T06:05:08.562Z,18.10
2017-08-29T06:10:10.933Z,18.40
2017-08-29T06:15:12.603Z,18.60
2017-08-29T06:20:14.376Z,18.90
2017-08-29T06:25:16.049Z,19.20
2017-08-29T06:30:17.828Z,19.60
2017-08-29T06:35:20.104Z,19.80
2017-08-29T06:40:22.280Z,20.10
2017-08-29T06:45:24.094Z,20.30
2017-08-29T06:50:25.667Z,20.40
2017-08-29T06:55:27.247Z,20.80
2017-08-29T07:00:28.808Z,21.10
2017-08-29T07:05:30.360Z,21.30
2017-08-29T07:10:31.937Z,21.60
2017-08-29T07:15:33.561Z,22.10
2017-08-29T07:20:35.137Z,22.20
2017-08-29T07:25:36.758Z,22.80
2017-08-29T07:30:38.332Z,22.90
2017-08-29T07:35:39.906Z,23.10
2017-08-29T07:40:41.521Z,23.30
2017-08-29T07:45:43.103Z,23.70
2017-08-29T07:50:44.712Z,23.90
2017-08-29T07:55:46.306Z,24.30
2017-08-29T08:00:47.922Z,24.70
2017-08-29T08:05:49.424Z,25.00
2017-08-29T08:10:51.049Z,25.20
2017-08-29T08:15:52.656Z,25.80
2017-08-29T08:20:54.226Z,26.10
2017-08-29T08:25:55.808Z,26.50
2017-08-29T08:30:57.385Z,27.00
2017-08-29T08:35:58.957Z,27.20
2017-08-29T08:41:00.533Z,27.50
2017-08-29T08:46:02.110Z,27.30
2017-08-29T08:51:03.676Z,27.90
2017-08-29T08:56:05.257Z,28.40
2017-08-29T09:01:06.893Z,28.70
2017-08-29T09:06:08.493Z,28.60
2017-08-29T09:11:10.072Z,28.30
2017-08-29T09:16:11.728Z,28.30
2017-08-29T09:21:13.324Z,28.80
2017-08-29T09:26:14.893Z,29.60
2017-08-29T09:31:16.456Z,29.40
2017-08-29T09:36:19.012Z,30.50
2017-08-29T09:41:20.552Z,30.70
2017-08-29T09:46:22.413Z,30.90
2017-08-29T09:51:23.982Z,31.20
2017-08-29T09:56:25.569Z,32.30
2017-08-29T10:01:27.129Z,32.00
2017-08-29T10:06:28.704Z,30.80
2017-08-29T10:11:30.266Z,30.30
2017-08-29T10:16:31.853Z,29.30
2017-08-29T10:21:33.441Z,29.10
2017-08-29T10:26:35.017Z,29.80
2017-08-29T10:31:36.550Z,30.30
2017-08-29T10:36:38.161Z,30.30
2017-08-29T10:41:39.729Z,30.20
2017-08-29T10:46:42.158Z,30.20
2017-08-29T10:51:43.756Z,29.90
2017-08-29T10:56:45.338Z,28.80
2017-08-29T11:01:46.908Z,29.70
2017-08-29T11:06:48.488Z,29.70
2017-08-29T11:11:50.066Z,29.60
2017-08-29T11:16:51.637Z,29.70
2017-08-29T11:21:53.208Z,29.90
2017-08-29T11:26:54.821Z,29.90
2017-08-29T11:31:56.437Z,30.00
2017-08-29T11:36:58.054Z,30.00
2017-08-29T11:41:59.685Z,29.70
2017-08-29T11:47:01.320Z,29.60
2017-08-29T11:52:02.943Z,29.50
2017-08-29T11:57:04.552Z,29.50
2017-08-29T12:02:06.175Z,29.70
2017-08-29T12:07:07.789Z,29.40
2017-08-29T12:12:09.800Z,29.50
2017-08-29T12:17:11.365Z,29.50
2017-08-29T12:22:12.942Z,29.30
2017-08-29T12:27:14.525Z,29.60
2017-08-29T12:32:16.084Z,29.70
2017-08-29T12:37:17.664Z,29.80
2017-08-29T12:42:19.242Z,29.80
2017-08-29T12:47:20.874Z,29.70
2017-08-29T12:52:22.445Z,29.60
2017-08-29T12:57:24.021Z,29.80
2017-08-29T13:02:25.592Z,29.60
2017-08-29T13:07:27.165Z,29.90
2017-08-29T13:12:28.789Z,29.80
2017-08-29T13:17:30.357Z,29.70
2017-08-29T13:22:31.991Z,29.80
2017-08-29T13:27:33.613Z,29.80
2017-08-29T13:32:35.213Z,29.80
2017-08-29T13:37:36.832Z,29.90
2017-08-29T13:42:38.352Z,29.60
2017-08-29T13:47:39.930Z,29.80
2017-08-29T13:52:41.459Z,29.90
2017-08-29T13:57:43.035Z,30.00
2017-08-29T14:02:44.613Z,30.00
2017-08-29T14:07:46.195Z,29.90
2017-08-29T14:12:48.053Z,29.90
2017-08-29T14:17:49.625Z,29.90
2017-08-29T14:22:51.185Z,29.80
2017-08-29T14:27:52.756Z,29.80
2017-08-29T14:32:54.361Z,29.80
2017-08-29T14:37:55.928Z,30.00
2017-08-29T14:42:57.511Z,30.00
2017-08-29T14:48:11.069Z,29.90
2017-08-29T14:53:12.637Z,29.90
2017-08-29T14:58:14.200Z,29.90
2017-08-29T15:03:15.765Z,29.90
2017-08-29T15:08:17.329Z,30.00
2017-08-29T15:13:18.892Z,29.70
2017-08-29T15:18:20.453Z,29.80
2017-08-29T15:23:22.019Z,29.80
2017-08-29T15:28:23.591Z,29.70
2017-08-29T15:33:25.155Z,29.60
2017-08-29T15:38:26.730Z,29.70
2017-08-29T15:43:28.301Z,29.70
2017-08-29T15:48:29.867Z,29.80
2017-08-29T15:53:31.433Z,29.70
2017-08-29T15:58:33.001Z,29.60
2017-08-29T16:03:34.571Z,29.50
2017-08-29T16:08:36.161Z,29.50
2017-08-29T16:13:37.744Z,29.50
2017-08-29T16:18:39.315Z,29.50
2017-08-29T16:23:40.885Z,29.40
2017-08-29T16:28:42.460Z,29.50
2017-08-29T16:33:44.159Z,29.40
2017-08-29T16:38:45.825Z,29.40
2017-08-29T16:43:47.501Z,29.30
2017-08-29T16:48:49.168Z,29.30
2017-08-29T16:53:50.852Z,29.20
2017-08-29T16:58:52.508Z,29.20
2017-08-29T17:03:54.177Z,29.10
2017-08-29T17:08:55.912Z,28.90
2017-08-29T17:13:57.592Z,28.80
2017-08-29T17:18:59.347Z,28.60
2017-08-29T17:24:01.021Z,28.40
2017-08-29T17:29:02.686Z,28.20
2017-08-29T17:34:04.490Z,28.00
2017-08-29T17:39:06.365Z,27.90
2017-08-29T17:44:08.014Z,27.60
2017-08-29T17:49:09.711Z,27.30
2017-08-29T17:54:11.361Z,27.10
2017-08-29T17:59:13.057Z,26.90
2017-08-29T18:04:14.730Z,26.50
2017-08-29T18:09:16.378Z,26.30
2017-08-29T18:14:18.077Z,26.10
2017-08-29T18:19:19.749Z,25.90
2017-08-29T18:24:21.502Z,25.70
2017-08-29T18:29:24.198Z,25.50
2017-08-29T18:34:26.740Z,25.30
2017-08-29T18:39:29.288Z,25.20
2017-08-29T18:44:31.183Z,25.10
2017-08-29T18:49:35.689Z,25.00
2017-08-29T18:54:37.478Z,24.80
2017-08-29T18:59:39.458Z,24.70
2017-08-29T19:04:41.153Z,24.50
2017-08-29T19:09:44.542Z,24.50
2017-08-29T19:14:46.449Z,24.50
2017-08-29T19:19:48.119Z,24.30
2017-08-29T19:24:49.801Z,24.30
2017-08-29T19:29:51.442Z,24.20
2017-08-29T19:34:53.240Z,24.10
2017-08-29T19:39:54.872Z,24.10
2017-08-29T19:44:56.557Z,24.00
2017-08-29T19:49:58.564Z,24.00
2017-08-29T19:55:00.209Z,23.90
2017-08-29T20:00:03.148Z,23.90
2017-08-29T20:05:04.789Z,23.90
2017-08-29T20:10:07.199Z,23.90
2017-08-29T20:15:08.809Z,23.90
2017-08-29T20:20:10.443Z,23.90
2017-08-29T20:25:12.089Z,23.80
2017-08-29T20:30:13.790Z,23.70
2017-08-29T20:35:15.409Z,23.70
2017-08-29T20:40:17.003Z,23.60
2017-08-29T20:45:18.886Z,23.60
2017-08-29T20:50:20.634Z,23.60
2017-08-29T20:55:22.358Z,23.50
2017-08-29T21:00:24.133Z,23.50
2017-08-29T21:05:25.755Z,23.40
2017-08-29T21:10:27.661Z,23.40
2017-08-29T21:15:29.439Z,23.40
2017-08-29T21:20:31.734Z,23.30
2017-08-29T21:25:33.521Z,23.20
2017-08-29T21:30:35.798Z,23.20
2017-08-29T21:35:37.526Z,23.10
2017-08-29T21:40:39.233Z,23.10
2017-08-29T21:45:40.877Z,23.10
2017-08-29T21:50:42.425Z,23.00
2017-08-29T21:55:44.587Z,23.00
2017-08-29T22:00:46.544Z,22.90
2017-08-29T22:05:48.218Z,22.90
2017-08-29T22:10:49.914Z,22.90
2017-08-29T22:15:52.189Z,22.90
2017-08-29T22:20:53.846Z,22.90
2017-08-29T22:25:55.581Z,22.80
2017-08-29T22:30:57.291Z,22.70
2017-08-29T22:35:58.988Z,22.50
2017-08-29T22:41:00.637Z,22.20
2017-08-29T22:46:02.335Z,22.00
2017-08-29T22:51:03.983Z,21.70
2017-08-29T22:56:05.680Z,21.40
2017-08-29T23:01:07.640Z,21.20
2017-08-29T23:06:09.536Z,20.90
2017-08-29T23:11:11.209Z,20.90
2017-08-29T23:16:12.882Z,20.80
2017-08-29T23:21:14.554Z,20.80
2017-08-29T23:26:18.681Z,20.70
2017-08-29T23:31:21.352Z,20.70
2017-08-29T23:36:23.264Z,20.60
2017-08-29T23:41:25.036Z,20.90
2017-08-29T23:46:26.684Z,20.90
2017-08-29T23:51:28.388Z,20.70
2017-08-29T23:56:30.053Z,20.50
